createdAt,value
2022-10-13T00:01:18.283Z,2.65
2022-10-13T00:03:47.336Z,2.80
2022-10-13T00:06:25.677Z,3.17
2022-10-13T00:08:54.157Z,3.00
2022-10-13T00:11:24.847Z,2.80
2022-10-13T00:13:54.972Z,2.53
2022-10-13T00:16:22.919Z,2.42
2022-10-13T00:18:51.326Z,2.30
2022-10-13T00:21:22.082Z,2.67
2022-10-13T00:23:50.995Z,2.53
2022-10-13T00:26:22.440Z,2.80
2022-10-13T00:28:52.477Z,2.92
2022-10-13T00:31:22.595Z,2.67
2022-10-13T00:33:50.294Z,2.55
2022-10-13T00:36:20.363Z,2.90
2022-10-13T00:38:47.879Z,2.95
2022-10-13T00:41:16.156Z,2.50
2022-10-13T00:43:52.832Z,3.13
2022-10-13T00:46:22.625Z,2.95
2022-10-13T00:49:04.829Z,2.85
2022-10-13T00:51:35.057Z,2.90
2022-10-13T00:54:05.985Z,2.80
2022-10-13T00:56:35.979Z,2.90
2022-10-13T00:59:10.188Z,2.95
2022-10-13T01:01:39.662Z,2.67
2022-10-13T01:04:06.926Z,2.67
2022-10-13T01:06:34.687Z,3.28
2022-10-13T01:09:02.070Z,3.25
2022-10-13T01:11:36.718Z,3.20
2022-10-13T01:14:33.975Z,2.58
2022-10-13T01:17:01.446Z,2.67
2022-10-13T01:19:31.478Z,2.70
2022-10-13T01:22:13.786Z,2.88
2022-10-13T01:24:43.895Z,2.63
2022-10-13T01:27:40.197Z,2.78
2022-10-13T01:30:12.494Z,2.60
2022-10-13T01:33:02.630Z,2.78
2022-10-13T01:35:50.846Z,2.80
2022-10-13T01:38:25.422Z,2.03
2022-10-13T01:41:04.797Z,2.70
2022-10-13T01:43:50.963Z,2.72
2022-10-13T01:46:25.014Z,3.05
2022-10-13T01:48:56.307Z,2.70
2022-10-13T01:51:27.369Z,3.05
2022-10-13T01:53:55.316Z,3.30
2022-10-13T01:56:22.833Z,2.95
2022-10-13T01:58:52.471Z,3.20
2022-10-13T02:01:32.046Z,3.00
2022-10-13T02:04:08.210Z,3.45
2022-10-13T02:06:53.280Z,3.50
2022-10-13T02:09:41.589Z,3.00
2022-10-13T02:12:30.470Z,3.35
2022-10-13T02:14:59.827Z,3.78
2022-10-13T02:17:29.170Z,3.13
2022-10-13T02:19:57.106Z,3.05
2022-10-13T02:22:32.340Z,3.15
2022-10-13T02:25:06.111Z,3.10
2022-10-13T02:27:33.763Z,3.35
2022-10-13T02:30:01.328Z,3.10
2022-10-13T02:32:33.561Z,3.10
2022-10-13T02:35:00.820Z,3.03
2022-10-13T02:37:28.517Z,3.10
2022-10-13T02:39:55.848Z,2.97
2022-10-13T02:42:23.558Z,2.72
2022-10-13T02:44:56.128Z,3.17
2022-10-13T02:47:23.750Z,3.72
2022-10-13T02:49:50.860Z,3.53
2022-10-13T02:52:18.585Z,3.33
2022-10-13T02:54:46.840Z,3.42
2022-10-13T02:57:14.108Z,3.92
2022-10-13T02:59:44.113Z,3.55
2022-10-13T03:02:11.964Z,4.18
2022-10-13T03:04:40.093Z,3.97
2022-10-13T03:07:07.603Z,3.40
2022-10-13T03:09:36.412Z,3.58
2022-10-13T03:12:03.943Z,3.70
2022-10-13T03:14:31.292Z,3.97
2022-10-13T03:16:58.506Z,4.07
2022-10-13T03:19:25.662Z,3.65
2022-10-13T03:21:52.877Z,4.18
2022-10-13T03:24:20.232Z,4.25
2022-10-13T03:26:47.875Z,5.00
2022-10-13T03:29:18.725Z,3.55
2022-10-13T03:31:45.817Z,3.50
2022-10-13T03:34:15.661Z,2.70
2022-10-13T03:36:43.290Z,3.50
2022-10-13T03:39:10.494Z,3.55
2022-10-13T03:41:38.228Z,3.80
2022-10-13T03:44:06.206Z,3.45
2022-10-13T03:46:34.046Z,4.05
2022-10-13T03:49:01.970Z,4.72
2022-10-13T03:51:30.304Z,3.90
2022-10-13T03:53:57.704Z,4.00
2022-10-13T03:56:26.706Z,3.30
2022-10-13T03:59:00.102Z,4.07
2022-10-13T04:01:30.249Z,4.60
2022-10-13T04:03:59.224Z,4.07
2022-10-13T04:06:26.979Z,4.68
2022-10-13T04:08:55.213Z,4.80
2022-10-13T04:11:22.776Z,5.47
2022-10-13T04:13:59.057Z,5.43
2022-10-13T04:16:28.939Z,5.13
2022-10-13T04:19:05.479Z,7.22
2022-10-13T04:21:34.785Z,8.20
2022-10-13T04:24:03.432Z,7.00
2022-10-13T04:26:33.311Z,8.00
2022-10-13T04:29:09.423Z,7.22
2022-10-13T04:31:37.399Z,7.43
2022-10-13T04:34:05.449Z,7.82
2022-10-13T04:36:33.885Z,7.88
2022-10-13T04:39:01.158Z,7.93
2022-10-13T04:41:29.296Z,8.25
2022-10-13T04:43:56.665Z,7.63
2022-10-13T04:46:27.350Z,8.20
2022-10-13T04:48:57.845Z,8.73
2022-10-13T04:51:33.057Z,9.00
2022-10-13T04:54:03.072Z,7.70
2022-10-13T04:56:30.477Z,8.85
2022-10-13T04:59:06.080Z,8.45
2022-10-13T05:01:34.743Z,9.18
2022-10-13T05:04:04.993Z,9.95
2022-10-13T05:06:59.003Z,9.37
2022-10-13T05:09:28.422Z,9.32
2022-10-13T05:11:55.891Z,10.02
2022-10-13T05:14:23.786Z,9.23
2022-10-13T05:16:52.128Z,9.02
2022-10-13T05:19:20.423Z,9.80
2022-10-13T05:21:49.749Z,10.30
2022-10-13T05:24:16.973Z,10.10
2022-10-13T05:26:47.686Z,9.30
2022-10-13T05:29:15.573Z,8.75
2022-10-13T05:31:42.831Z,8.10
2022-10-13T05:34:11.426Z,8.65
2022-10-13T05:36:38.558Z,6.60
2022-10-13T05:39:08.512Z,7.05
2022-10-13T05:41:35.676Z,6.60
2022-10-13T05:44:09.241Z,7.00
2022-10-13T05:46:42.705Z,7.65
2022-10-13T05:49:11.151Z,6.82
2022-10-13T05:51:47.889Z,8.15
2022-10-13T05:54:16.064Z,7.75
2022-10-13T05:56:59.521Z,6.70
2022-10-13T06:01:58.716Z,5.70
2022-10-13T06:04:32.028Z,6.07
2022-10-13T06:06:59.690Z,5.97
2022-10-13T06:09:35.837Z,6.70
2022-10-13T06:12:03.153Z,6.38
2022-10-13T06:14:30.763Z,7.75
2022-10-13T06:16:57.994Z,5.43
2022-10-13T06:19:25.320Z,7.55
2022-10-13T06:21:52.710Z,6.65
2022-10-13T06:24:20.541Z,7.82
2022-10-13T06:26:48.282Z,7.18
2022-10-13T06:29:15.698Z,10.70
2022-10-13T06:31:43.344Z,8.88
2022-10-13T06:34:13.039Z,8.52
2022-10-13T06:36:45.560Z,8.30
2022-10-13T06:39:14.673Z,11.30
2022-10-13T06:41:42.129Z,11.80
2022-10-13T06:44:09.769Z,13.10
2022-10-13T06:46:37.020Z,9.95
2022-10-13T06:49:04.296Z,11.48
2022-10-13T06:51:31.506Z,12.15
2022-10-13T06:53:58.978Z,11.82
2022-10-13T06:56:27.971Z,8.73
2022-10-13T06:58:57.955Z,8.05
2022-10-13T07:01:25.348Z,7.50
2022-10-13T07:03:54.663Z,7.35
2022-10-13T07:06:22.836Z,6.60
2022-10-13T07:08:51.217Z,6.97
2022-10-13T07:11:20.450Z,6.22
2022-10-13T07:13:54.484Z,4.10
2022-10-13T07:16:22.002Z,4.82
2022-10-13T07:18:50.086Z,4.40
2022-10-13T07:21:19.336Z,3.78
2022-10-13T07:23:46.597Z,3.47
2022-10-13T07:26:16.471Z,3.30
2022-10-13T07:28:45.018Z,3.50
2022-10-13T07:31:15.329Z,3.00
2022-10-13T07:33:44.549Z,3.78
2022-10-13T07:36:15.179Z,3.25
2022-10-13T07:38:44.163Z,3.20
2022-10-13T07:41:12.965Z,3.15
2022-10-13T07:43:41.174Z,3.05
2022-10-13T07:46:08.930Z,2.55
2022-10-13T07:48:37.138Z,3.67
2022-10-13T07:51:13.043Z,3.58
2022-10-13T07:53:43.018Z,3.03
2022-10-13T07:56:13.402Z,4.38
2022-10-13T07:58:44.307Z,3.30
2022-10-13T08:01:12.864Z,2.92
2022-10-13T08:03:45.610Z,3.30
2022-10-13T08:06:19.364Z,3.35
2022-10-13T08:08:47.865Z,3.47
2022-10-13T08:11:18.365Z,2.80
2022-10-13T08:13:51.061Z,3.35
2022-10-13T08:16:25.186Z,2.80
2022-10-13T08:18:53.117Z,3.10
2022-10-13T08:24:14.441Z,3.08
2022-10-13T08:26:43.139Z,3.03
2022-10-13T08:29:27.239Z,2.95
2022-10-13T08:31:55.940Z,2.60
2022-10-13T08:34:24.206Z,2.40
2022-10-13T08:36:54.830Z,2.60
2022-10-13T08:39:24.847Z,2.58
2022-10-13T08:41:53.291Z,2.83
2022-10-13T08:45:21.899Z,2.85
2022-10-13T08:47:47.357Z,2.45
2022-10-13T08:50:29.145Z,2.33
2022-10-13T08:53:05.464Z,2.17
2022-10-13T08:55:32.635Z,2.10
2022-10-13T08:58:06.476Z,2.47
2022-10-13T09:00:33.670Z,2.58
2022-10-13T09:03:20.906Z,2.50
2022-10-13T09:06:29.445Z,2.55
2022-10-13T09:09:06.193Z,2.00
2022-10-13T09:11:48.232Z,1.92
2022-10-13T09:14:24.683Z,2.20
2022-10-13T09:16:56.352Z,2.30
2022-10-13T09:19:34.462Z,2.20
2022-10-13T09:22:25.963Z,2.35
2022-10-13T09:25:21.672Z,2.20
2022-10-13T09:27:57.228Z,2.55
2022-10-13T09:30:38.670Z,2.78
2022-10-13T09:33:09.205Z,2.50
2022-10-13T09:35:42.615Z,2.47
2022-10-13T09:38:25.286Z,2.38
2022-10-13T09:41:09.541Z,2.25
2022-10-13T09:46:26.040Z,2.30
2022-10-13T09:49:03.116Z,2.20
2022-10-13T09:51:43.101Z,2.58
2022-10-13T09:54:36.426Z,1.70
2022-10-13T09:57:24.883Z,2.30
2022-10-13T10:00:25.511Z,2.30
2022-10-13T10:03:10.822Z,2.40
2022-10-13T10:05:57.372Z,1.83
2022-10-13T10:09:01.416Z,1.52
2022-10-13T10:11:33.687Z,1.92
2022-10-13T10:14:16.453Z,1.58
2022-10-13T10:16:50.871Z,2.13
2022-10-13T10:19:25.281Z,2.08
2022-10-13T10:21:58.417Z,1.98
2022-10-13T10:24:27.898Z,2.30
2022-10-13T10:27:06.150Z,1.80
2022-10-13T10:30:00.985Z,1.77
2022-10-13T10:32:33.386Z,1.80
2022-10-13T10:35:14.660Z,1.92
2022-10-13T10:38:01.881Z,1.80
2022-10-13T10:41:25.112Z,2.00
2022-10-13T10:43:55.551Z,1.98
2022-10-13T10:46:24.418Z,1.77
2022-10-13T10:48:58.704Z,1.60
2022-10-13T10:51:32.209Z,1.88
2022-10-13T10:54:15.411Z,1.58
2022-10-13T10:57:12.268Z,1.60
2022-10-13T10:59:58.147Z,1.65
2022-10-13T11:02:38.766Z,1.63
2022-10-13T11:05:06.719Z,1.95
2022-10-13T11:07:34.095Z,1.98
2022-10-13T11:10:05.131Z,1.80
2022-10-13T11:12:55.951Z,1.90
2022-10-13T11:15:26.415Z,1.80
2022-10-13T11:17:54.032Z,2.00
2022-10-13T11:20:21.182Z,1.80
2022-10-13T11:23:14.015Z,1.90
2022-10-13T11:25:48.991Z,1.83
2022-10-13T11:28:22.373Z,1.95
2022-10-13T11:30:56.335Z,1.90
2022-10-13T11:33:39.089Z,2.00
2022-10-13T11:36:29.885Z,1.75
2022-10-13T11:39:28.173Z,2.00
2022-10-13T11:42:25.433Z,2.20
2022-10-13T11:45:18.464Z,2.38
2022-10-13T11:47:57.878Z,2.33
2022-10-13T11:50:49.938Z,2.10
2022-10-13T11:53:32.862Z,2.15
2022-10-13T11:56:04.071Z,1.73
2022-10-13T11:58:33.131Z,2.00
2022-10-13T12:01:02.274Z,2.20
2022-10-13T12:03:32.893Z,2.35
2022-10-13T12:06:04.792Z,2.75
2022-10-13T12:08:36.593Z,2.20
2022-10-13T12:11:07.770Z,2.38
2022-10-13T12:13:37.030Z,2.10
2022-10-13T12:16:08.423Z,1.98
2022-10-13T12:18:39.408Z,1.90
2022-10-13T12:21:20.431Z,2.10
2022-10-13T12:23:52.595Z,2.10
2022-10-13T12:26:23.027Z,2.13
2022-10-13T12:28:56.988Z,2.10
2022-10-13T12:31:38.266Z,2.25
2022-10-13T12:34:19.253Z,2.10
2022-10-13T12:36:54.241Z,2.20
2022-10-13T12:39:21.874Z,2.00
2022-10-13T12:41:49.779Z,2.08
2022-10-13T12:44:22.435Z,2.05
2022-10-13T12:46:56.344Z,2.15
2022-10-13T12:49:29.356Z,2.58
2022-10-13T12:52:16.632Z,2.38
2022-10-13T12:54:50.108Z,2.10
2022-10-13T12:57:37.803Z,2.22
2022-10-13T13:00:26.929Z,2.17
2022-10-13T13:03:07.441Z,2.17
2022-10-13T13:05:45.810Z,2.35
2022-10-13T13:08:30.039Z,2.15
2022-10-13T13:11:03.278Z,1.90
2022-10-13T13:13:31.255Z,1.90
2022-10-13T13:16:19.322Z,2.08
2022-10-13T13:18:48.354Z,2.67
2022-10-13T13:21:18.019Z,2.15
2022-10-13T13:23:52.715Z,2.00
2022-10-13T13:26:24.025Z,2.30
2022-10-13T13:28:56.398Z,2.10
2022-10-13T13:31:26.969Z,2.58
2022-10-13T13:33:54.197Z,2.90
2022-10-13T13:36:26.008Z,2.55
2022-10-13T13:38:54.775Z,2.65
2022-10-13T13:41:22.526Z,2.65
2022-10-13T13:43:52.620Z,3.10
2022-10-13T13:46:23.669Z,2.65
2022-10-13T13:48:53.331Z,2.78
2022-10-13T13:51:20.711Z,2.72
2022-10-13T13:53:49.534Z,2.70
2022-10-13T13:56:20.436Z,2.45
2022-10-13T13:58:47.806Z,2.60
2022-10-13T14:01:16.032Z,2.78
2022-10-13T14:03:43.401Z,2.50
2022-10-13T14:06:21.773Z,2.50
2022-10-13T14:08:49.490Z,3.20
2022-10-13T14:11:17.341Z,2.92
2022-10-13T14:13:45.748Z,3.30
2022-10-13T14:16:18.244Z,2.60
2022-10-13T14:18:46.260Z,2.92
2022-10-13T14:21:13.525Z,3.00
2022-10-13T14:23:45.762Z,2.60
2022-10-13T14:26:14.128Z,3.05
2022-10-13T14:28:42.549Z,2.92
2022-10-13T14:31:10.495Z,3.03
2022-10-13T14:33:38.496Z,3.00
2022-10-13T14:36:07.242Z,3.38
2022-10-13T14:38:35.324Z,3.22
2022-10-13T14:41:04.645Z,3.13
2022-10-13T14:43:32.236Z,2.92
2022-10-13T14:46:04.547Z,3.78
2022-10-13T14:48:33.171Z,3.85
2022-10-13T14:51:05.097Z,3.63
2022-10-13T14:53:34.661Z,4.15
2022-10-13T14:56:02.177Z,3.90
2022-10-13T14:58:31.414Z,3.80
2022-10-13T15:00:59.258Z,3.63
2022-10-13T15:03:28.149Z,3.85
2022-10-13T15:05:55.418Z,4.00
2022-10-13T15:08:24.854Z,4.10
2022-10-13T15:11:04.637Z,4.10
2022-10-13T15:13:32.669Z,4.53
2022-10-13T15:16:04.913Z,4.50
2022-10-13T15:18:33.401Z,4.72
2022-10-13T15:21:00.824Z,4.57
2022-10-13T15:23:28.389Z,4.75
2022-10-13T15:26:01.748Z,4.57
2022-10-13T15:28:35.524Z,5.40
2022-10-13T15:31:03.192Z,4.93
2022-10-13T15:33:30.788Z,4.63
2022-10-13T15:35:58.767Z,5.30
2022-10-13T15:38:27.576Z,5.40
2022-10-13T15:41:00.673Z,5.07
2022-10-13T15:43:29.029Z,4.93
2022-10-13T15:46:00.736Z,4.60
2022-10-13T15:48:28.184Z,4.78
2022-10-13T15:50:55.565Z,4.20
2022-10-13T15:53:23.040Z,4.25
2022-10-13T15:55:50.707Z,4.10
2022-10-13T15:58:18.513Z,4.82
2022-10-13T16:00:46.044Z,4.63
2022-10-13T16:03:18.455Z,4.80
2022-10-13T16:05:46.770Z,4.57
2022-10-13T16:08:15.072Z,5.18
2022-10-13T16:10:43.148Z,5.28
2022-10-13T16:13:14.114Z,5.20
2022-10-13T16:15:42.722Z,5.78
2022-10-13T16:18:11.339Z,5.38
2022-10-13T16:20:40.850Z,4.97
2022-10-13T16:23:08.138Z,5.53
2022-10-13T16:25:39.447Z,5.55
2022-10-13T16:28:06.642Z,5.43
2022-10-13T16:30:37.124Z,5.75
2022-10-13T16:33:04.367Z,5.70
2022-10-13T16:35:32.050Z,6.60
2022-10-13T16:38:00.583Z,6.78
2022-10-13T16:40:27.997Z,6.10
2022-10-13T16:42:55.553Z,6.40
2022-10-13T16:45:41.120Z,6.10
2022-10-13T16:48:10.849Z,6.50
2022-10-13T16:50:38.675Z,6.97
2022-10-13T16:53:06.015Z,6.40
2022-10-13T16:55:33.248Z,7.13
2022-10-13T16:58:00.571Z,7.18
2022-10-13T17:00:27.852Z,7.22
2022-10-13T17:02:56.328Z,9.15
2022-10-13T17:05:23.653Z,8.63
2022-10-13T17:07:53.784Z,8.05
2022-10-13T17:10:21.179Z,7.85
2022-10-13T17:12:50.959Z,7.07
2022-10-13T17:15:20.316Z,7.10
2022-10-13T17:17:47.745Z,7.65
2022-10-13T17:20:15.036Z,8.55
2022-10-13T17:22:45.969Z,8.02
2022-10-13T17:25:13.736Z,6.80
2022-10-13T17:27:41.314Z,6.93
2022-10-13T17:30:09.273Z,5.70
2022-10-13T17:32:39.951Z,6.00
2022-10-13T17:35:07.939Z,6.22
2022-10-13T17:37:35.790Z,6.47
2022-10-13T17:40:03.062Z,6.10
2022-10-13T17:42:31.060Z,5.97
2022-10-13T17:44:59.910Z,6.00
2022-10-13T17:47:27.420Z,5.53
2022-10-13T17:49:56.005Z,6.25
2022-10-13T17:52:24.195Z,5.68
2022-10-13T17:54:51.498Z,4.88
2022-10-13T17:57:18.868Z,5.25
2022-10-13T17:59:46.550Z,5.80
2022-10-13T18:02:14.357Z,5.28
2022-10-13T18:04:42.380Z,5.50
2022-10-13T18:07:09.885Z,5.28
2022-10-13T18:09:37.082Z,5.47
2022-10-13T18:12:05.444Z,4.35
2022-10-13T18:14:32.814Z,4.45
2022-10-13T18:17:00.041Z,4.18
2022-10-13T18:19:28.121Z,4.60
2022-10-13T18:21:56.810Z,4.40
2022-10-13T18:24:26.080Z,4.20
2022-10-13T18:26:56.008Z,4.40
2022-10-13T18:29:24.397Z,4.15
2022-10-13T18:31:55.253Z,5.43
2022-10-13T18:34:23.480Z,4.20
2022-10-13T18:36:55.187Z,4.38
2022-10-13T18:39:25.776Z,4.68
2022-10-13T18:41:54.348Z,4.00
2022-10-13T18:44:23.471Z,3.88
2022-10-13T18:46:54.027Z,4.10
2022-10-13T18:49:31.187Z,4.10
2022-10-13T18:51:59.509Z,4.10
2022-10-13T18:54:28.130Z,3.17
2022-10-13T18:56:55.339Z,3.72
2022-10-13T18:59:23.671Z,3.80
2022-10-13T19:01:50.908Z,3.60
2022-10-13T19:04:18.087Z,3.55
2022-10-13T19:06:46.683Z,3.60
2022-10-13T19:09:15.686Z,3.30
2022-10-13T19:11:43.286Z,3.30
2022-10-13T19:14:14.094Z,3.30
2022-10-13T19:16:43.646Z,3.33
2022-10-13T19:19:11.810Z,3.10
2022-10-13T19:21:39.809Z,3.42
2022-10-13T19:24:09.952Z,2.90
2022-10-13T19:26:37.616Z,3.20
2022-10-13T19:29:13.659Z,3.25
2022-10-13T19:31:42.959Z,3.10
2022-10-13T19:34:12.018Z,3.10
2022-10-13T19:36:45.968Z,3.03
2022-10-13T19:39:15.618Z,3.08
2022-10-13T19:41:44.795Z,2.92
2022-10-13T19:44:12.636Z,2.83
2022-10-13T19:46:42.867Z,2.88
2022-10-13T19:49:12.508Z,2.88
2022-10-13T19:54:13.141Z,2.80
2022-10-13T19:56:47.410Z,2.80
2022-10-13T19:59:15.761Z,2.13
2022-10-13T20:01:43.479Z,2.72
2022-10-13T20:04:15.746Z,2.70
2022-10-13T20:06:44.511Z,2.47
2022-10-13T20:09:12.269Z,2.60
2022-10-13T20:11:39.606Z,2.40
2022-10-13T20:14:07.019Z,2.90
2022-10-13T20:16:35.412Z,2.53
2022-10-13T20:19:03.180Z,2.45
2022-10-13T20:21:31.857Z,2.50
2022-10-13T20:24:00.371Z,2.45
2022-10-13T20:26:27.582Z,2.20
2022-10-13T20:28:55.577Z,2.15
2022-10-13T20:31:23.828Z,2.28
2022-10-13T20:33:58.621Z,2.20
2022-10-13T20:36:36.047Z,2.42
2022-10-13T20:39:06.278Z,2.17
2022-10-13T20:41:35.492Z,2.28
2022-10-13T20:44:03.319Z,2.08
2022-10-13T20:46:33.797Z,2.20
2022-10-13T20:49:16.593Z,2.30
2022-10-13T20:51:44.785Z,2.13
2022-10-13T20:54:13.439Z,1.90
2022-10-13T20:56:41.816Z,2.42
2022-10-13T20:59:12.651Z,2.30
2022-10-13T21:01:39.941Z,2.33
2022-10-13T21:04:07.999Z,2.20
2022-10-13T21:06:35.986Z,2.30
2022-10-13T21:09:17.654Z,2.70
2022-10-13T21:11:56.997Z,2.13
2022-10-13T21:14:35.123Z,2.22
2022-10-13T21:17:13.438Z,2.03
2022-10-13T21:19:51.603Z,2.15
2022-10-13T21:22:29.645Z,2.10
2022-10-13T21:25:15.120Z,2.20
2022-10-13T21:27:54.845Z,2.20
2022-10-13T21:30:36.945Z,2.40
2022-10-13T21:33:15.481Z,2.35
2022-10-13T21:35:54.451Z,2.50
2022-10-13T21:38:33.264Z,2.15
2022-10-13T21:41:14.487Z,2.25
2022-10-13T21:43:55.671Z,2.20
2022-10-13T21:46:35.468Z,2.30
2022-10-13T21:49:14.275Z,2.30
2022-10-13T21:51:52.524Z,2.15
2022-10-13T21:54:30.741Z,2.45
2022-10-13T21:57:08.849Z,1.92
2022-10-13T21:59:47.599Z,2.40
2022-10-13T22:02:27.078Z,2.20
2022-10-13T22:05:05.482Z,2.70
2022-10-13T22:07:44.815Z,2.30
2022-10-13T22:10:12.084Z,2.78
2022-10-13T22:12:50.621Z,2.60
2022-10-13T22:15:34.562Z,2.30
2022-10-13T22:18:13.099Z,2.30
2022-10-13T22:20:51.237Z,2.65
2022-10-13T22:23:32.804Z,2.75
2022-10-13T22:26:11.740Z,2.50
2022-10-13T22:28:51.963Z,2.83
2022-10-13T22:31:32.882Z,2.65
2022-10-13T22:34:17.880Z,2.55
2022-10-13T22:37:12.188Z,3.10
2022-10-13T22:39:51.305Z,2.70
2022-10-13T22:42:29.553Z,3.10
2022-10-13T22:45:08.090Z,3.20
2022-10-13T22:47:51.401Z,2.80
2022-10-13T22:50:30.592Z,3.05
2022-10-13T22:53:09.234Z,3.05
2022-10-13T22:55:48.832Z,2.78
2022-10-13T22:58:28.292Z,3.25
2022-10-13T23:01:13.994Z,2.97
2022-10-13T23:03:55.587Z,3.00
2022-10-13T23:06:35.192Z,3.08
2022-10-13T23:09:16.087Z,2.85
2022-10-13T23:11:59.659Z,2.88
2022-10-13T23:14:33.189Z,2.75
2022-10-13T23:17:00.581Z,3.00
2022-10-13T23:19:27.889Z,2.72
2022-10-13T23:21:56.035Z,2.90
2022-10-13T23:24:25.256Z,3.10
2022-10-13T23:26:52.432Z,3.10
2022-10-13T23:29:19.643Z,2.75
2022-10-13T23:31:46.858Z,3.25
2022-10-13T23:34:13.977Z,2.72
2022-10-13T23:36:43.430Z,2.72
2022-10-13T23:39:11.546Z,3.00
2022-10-13T23:41:38.996Z,2.83
2022-10-13T23:44:06.400Z,3.00
2022-10-13T23:46:44.964Z,3.20
2022-10-13T23:49:26.170Z,3.60
2022-10-13T23:52:09.951Z,3.25
2022-10-13T23:54:49.022Z,2.83
2022-10-13T23:57:30.069Z,3.50
